createdAt,value
2023-02-04T00:03:15.122Z,4.84
2023-02-04T00:05:50.003Z,4.92
2023-02-04T00:08:22.011Z,4.88
2023-02-04T00:10:52.227Z,4.85
2023-02-04T00:14:17.613Z,4.85
2023-02-04T00:21:30.214Z,4.88
2023-02-04T00:24:55.755Z,4.91
2023-02-04T00:27:29.085Z,4.90
2023-02-04T00:30:29.894Z,4.90
2023-02-04T00:33:29.173Z,4.88
2023-02-04T00:35:58.334Z,4.85
2023-02-04T00:38:32.381Z,4.84
2023-02-04T00:41:04.655Z,4.94
2023-02-04T00:43:35.954Z,4.97
2023-02-04T00:46:14.756Z,4.90
2023-02-04T00:49:41.204Z,4.90
2023-02-04T00:52:15.769Z,4.84
2023-02-04T00:54:56.405Z,4.76
2023-02-04T00:58:35.086Z,4.84
2023-02-04T01:01:08.996Z,4.80
2023-02-04T01:03:44.145Z,4.80
2023-02-04T01:07:16.590Z,4.83
2023-02-04T01:09:46.829Z,4.94
2023-02-04T01:12:26.172Z,4.94
2023-02-04T01:16:15.209Z,5.02
2023-02-04T01:19:46.918Z,4.95
2023-02-04T01:22:17.219Z,4.97
2023-02-04T01:24:45.399Z,4.98
2023-02-04T01:36:50.471Z,5.19
2023-02-04T01:44:01.887Z,5.38
2023-02-04T01:51:06.150Z,5.46
2023-02-04T01:58:57.759Z,5.49
2023-02-04T02:02:28.139Z,5.49
2023-02-04T02:09:39.048Z,5.62
2023-02-04T02:12:18.238Z,5.67
2023-02-04T02:14:47.806Z,5.73
2023-02-04T02:17:22.930Z,5.70
2023-02-04T02:20:25.390Z,5.66
2023-02-04T02:23:15.576Z,5.65
2023-02-04T02:25:46.391Z,5.57
2023-02-04T02:28:29.778Z,5.65
2023-02-04T02:32:04.256Z,5.60
2023-02-04T02:35:48.431Z,5.55
2023-02-04T02:38:17.642Z,5.60
2023-02-04T02:41:00.572Z,5.59
2023-02-04T02:43:31.467Z,5.48
2023-02-04T02:46:05.050Z,5.60
2023-02-04T02:48:35.051Z,5.60
2023-02-04T02:51:05.604Z,5.55
2023-02-04T02:58:15.712Z,5.66
2023-02-04T03:01:01.971Z,5.56
2023-02-04T03:03:34.935Z,5.50
2023-02-04T03:06:11.336Z,5.67
2023-02-04T03:09:08.584Z,5.62
2023-02-04T03:11:38.542Z,5.53
2023-02-04T03:14:13.514Z,5.73
2023-02-04T03:16:45.783Z,5.70
2023-02-04T03:19:20.291Z,5.63
2023-02-04T03:21:55.657Z,5.63
2023-02-04T03:24:26.914Z,5.56
2023-02-04T03:26:56.379Z,5.39
2023-02-04T03:29:29.729Z,5.45
2023-02-04T03:32:01.510Z,5.36
2023-02-04T03:34:32.296Z,5.39
2023-02-04T03:37:00.631Z,5.31
2023-02-04T03:39:35.798Z,5.27
2023-02-04T03:42:04.998Z,5.31
2023-02-04T03:44:36.521Z,5.32
2023-02-04T03:48:04.197Z,5.34
2023-02-04T03:50:37.488Z,5.34
2023-02-04T03:53:12.251Z,5.31
2023-02-04T03:55:44.988Z,5.32
2023-02-04T03:58:15.168Z,5.35
2023-02-04T04:00:48.695Z,5.43
2023-02-04T04:03:23.288Z,5.38
2023-02-04T04:05:53.491Z,5.40
2023-02-04T04:08:25.805Z,5.50
2023-02-04T04:11:26.704Z,5.53
2023-02-04T04:14:14.959Z,5.50
2023-02-04T04:16:48.517Z,5.62
2023-02-04T04:19:17.749Z,5.59
2023-02-04T04:21:50.986Z,5.60
2023-02-04T04:24:22.301Z,5.63
2023-02-04T04:26:50.637Z,5.66
2023-02-04T04:29:24.816Z,5.71
2023-02-04T04:32:27.094Z,5.67
2023-02-04T04:35:17.172Z,5.50
2023-02-04T04:38:46.752Z,5.60
2023-02-04T04:41:15.218Z,5.62
2023-02-04T04:43:51.310Z,5.60
2023-02-04T04:46:20.521Z,5.69
2023-02-04T04:49:16.526Z,5.67
2023-02-04T04:56:19.228Z,5.81
2023-02-04T04:59:53.492Z,5.76
2023-02-04T05:02:24.895Z,5.77
2023-02-04T05:09:38.238Z,5.86
2023-02-04T05:12:10.948Z,6.03
2023-02-04T05:14:41.142Z,5.91
2023-02-04T05:17:38.962Z,5.86
2023-02-04T05:20:09.015Z,5.83
2023-02-04T05:27:26.270Z,5.66
2023-02-04T05:29:55.448Z,5.56
2023-02-04T05:32:23.596Z,5.42
2023-02-04T05:39:16.394Z,4.83
2023-02-04T05:50:41.566Z,4.66
2023-02-04T05:57:42.934Z,4.70
2023-02-04T06:04:44.963Z,4.62
2023-02-04T06:11:48.246Z,4.49
2023-02-04T06:18:58.807Z,4.39
2023-02-04T06:25:59.768Z,4.33
2023-02-04T06:33:13.337Z,4.31
2023-02-04T06:40:24.775Z,4.26
2023-02-04T06:43:12.352Z,4.26
2023-02-04T06:50:18.863Z,4.18
2023-02-04T06:53:25.921Z,4.14
2023-02-04T07:05:21.255Z,3.52
2023-02-04T07:08:12.702Z,3.32
2023-02-04T07:11:43.490Z,3.08
2023-02-04T07:15:27.367Z,3.12
2023-02-04T07:22:40.202Z,3.33
2023-02-04T07:26:05.794Z,3.43
2023-02-04T07:33:17.029Z,3.46
2023-02-04T07:40:11.600Z,3.33
2023-02-04T07:57:36.088Z,3.09
2023-02-04T08:00:36.246Z,3.12
2023-02-04T08:03:13.898Z,3.11
2023-02-04T08:09:56.828Z,3.08
2023-02-04T08:16:59.166Z,2.95
2023-02-04T08:33:11.174Z,2.95
2023-02-04T08:35:47.316Z,3.01
2023-02-04T08:42:49.106Z,3.26
2023-02-04T08:49:52.209Z,3.18
2023-02-04T08:58:23.177Z,3.28
2023-02-04T09:00:54.903Z,3.38
2023-02-04T09:04:28.864Z,3.38
2023-02-04T09:12:13.495Z,3.40
2023-02-04T09:15:18.249Z,3.76
2023-02-04T09:18:04.872Z,3.90
2023-02-04T09:20:36.173Z,4.02
2023-02-04T09:23:34.380Z,4.25
2023-02-04T09:27:33.134Z,3.93
2023-02-04T09:35:30.065Z,3.71
2023-02-04T09:38:29.173Z,3.73
2023-02-04T09:44:52.400Z,4.21
2023-02-04T09:47:24.247Z,4.62
2023-02-04T09:50:02.218Z,4.83
2023-02-04T09:52:34.862Z,4.83
2023-02-04T09:55:10.295Z,4.88
2023-02-04T09:58:00.607Z,4.62
2023-02-04T10:00:32.085Z,4.83
2023-02-04T10:03:03.603Z,4.52
2023-02-04T10:05:32.946Z,4.26
2023-02-04T10:08:02.607Z,4.25
2023-02-04T10:10:35.591Z,4.16
2023-02-04T10:13:17.786Z,3.77
2023-02-04T10:15:48.993Z,3.59
2023-02-04T10:22:50.401Z,3.38
2023-02-04T10:26:10.137Z,3.38
2023-02-04T10:28:40.282Z,3.25
2023-02-04T10:31:25.451Z,3.26
2023-02-04T10:34:03.802Z,3.22
2023-02-04T10:36:31.930Z,3.16
2023-02-04T10:43:09.463Z,3.07
2023-02-04T10:46:07.408Z,3.07
2023-02-04T10:49:10.002Z,3.04
2023-02-04T10:55:53.903Z,3.12
2023-02-04T11:02:47.877Z,3.07
2023-02-04T11:09:32.491Z,4.02
2023-02-04T11:12:03.844Z,4.12
2023-02-04T11:14:35.979Z,4.41
2023-02-04T11:17:05.922Z,4.42
2023-02-04T11:19:44.792Z,4.56
2023-02-04T11:22:23.991Z,4.33
2023-02-04T11:24:54.105Z,4.54
2023-02-04T11:27:27.606Z,4.41
2023-02-04T11:30:06.489Z,4.41
2023-02-04T11:32:38.185Z,4.64
2023-02-04T11:35:24.794Z,4.32
2023-02-04T11:37:55.943Z,4.42
2023-02-04T11:40:27.109Z,4.25
2023-02-04T11:43:13.568Z,4.33
2023-02-04T11:45:42.074Z,4.62
2023-02-04T11:59:56.999Z,3.49
2023-02-04T12:02:27.583Z,3.40
2023-02-04T12:04:58.792Z,3.50
2023-02-04T12:07:30.822Z,3.46
2023-02-04T12:09:59.320Z,3.36
2023-02-04T12:12:30.830Z,3.39
2023-02-04T12:15:05.979Z,3.39
2023-02-04T12:17:34.233Z,3.39
2023-02-04T12:20:02.740Z,3.42
2023-02-04T12:22:34.783Z,3.57
2023-02-04T12:25:03.058Z,3.46
2023-02-04T12:27:32.392Z,3.59
2023-02-04T12:30:02.116Z,3.66
2023-02-04T12:32:30.583Z,3.57
2023-02-04T12:34:59.034Z,3.64
2023-02-04T12:37:27.651Z,3.38
2023-02-04T12:39:56.154Z,3.33
2023-02-04T12:42:24.327Z,3.36
2023-02-04T12:44:52.470Z,3.16
2023-02-04T12:47:22.011Z,3.32
2023-02-04T12:49:50.235Z,3.38
2023-02-04T12:52:18.432Z,3.22
2023-02-04T12:54:46.814Z,3.23
2023-02-04T12:57:19.758Z,3.15
2023-02-04T12:59:48.912Z,3.16
2023-02-04T13:02:17.653Z,3.08
2023-02-04T13:04:49.131Z,3.13
2023-02-04T13:07:19.682Z,3.08
2023-02-04T13:09:49.825Z,3.02
2023-02-04T13:12:18.300Z,3.05
2023-02-04T13:14:46.602Z,3.08
2023-02-04T13:17:14.836Z,3.09
2023-02-04T13:19:43.020Z,3.05
2023-02-04T13:22:12.787Z,3.22
2023-02-04T13:24:41.441Z,3.25
2023-02-04T13:27:09.531Z,3.04
2023-02-04T13:29:37.753Z,3.11
2023-02-04T13:32:06.375Z,3.08
2023-02-04T13:34:34.859Z,3.05
2023-02-04T13:37:03.363Z,3.02
2023-02-04T13:39:33.048Z,3.09
2023-02-04T13:42:04.163Z,3.12
2023-02-04T13:44:35.069Z,3.09
2023-02-04T13:47:03.332Z,3.09
2023-02-04T13:49:31.459Z,2.85
2023-02-04T13:51:59.531Z,2.81
2023-02-04T13:54:27.662Z,2.80
2023-02-04T13:56:57.131Z,2.81
2023-02-04T13:59:25.252Z,2.84
2023-02-04T14:01:53.430Z,2.60
2023-02-04T14:04:21.598Z,2.54
2023-02-04T14:06:49.733Z,2.53
2023-02-04T14:09:18.058Z,2.49
2023-02-04T14:11:46.173Z,2.50
2023-02-04T14:14:16.139Z,2.49
2023-02-04T14:16:44.407Z,2.43
2023-02-04T14:19:12.913Z,2.53
2023-02-04T14:21:41.151Z,2.57
2023-02-04T14:24:09.339Z,2.50
2023-02-04T14:26:37.416Z,2.39
2023-02-04T14:29:07.146Z,2.37
2023-02-04T14:31:37.617Z,2.30
2023-02-04T14:34:09.729Z,2.28
2023-02-04T14:36:37.878Z,2.21
2023-02-04T14:39:06.068Z,2.25
2023-02-04T14:41:34.246Z,2.29
2023-02-04T14:44:02.741Z,2.21
2023-02-04T14:46:30.994Z,2.06
2023-02-04T14:49:00.490Z,1.94
2023-02-04T14:51:28.791Z,1.88
2023-02-04T14:53:56.975Z,1.77
2023-02-04T14:56:25.143Z,1.68
2023-02-04T14:58:55.349Z,1.66
2023-02-04T15:01:23.543Z,1.61
2023-02-04T15:03:52.147Z,1.56
2023-02-04T15:06:23.681Z,1.50
2023-02-04T15:08:52.403Z,1.38
2023-02-04T15:11:20.928Z,1.33
2023-02-04T15:13:48.951Z,1.29
2023-02-04T15:16:17.180Z,1.25
2023-02-04T15:18:45.764Z,1.22
2023-02-04T15:21:14.383Z,1.16
2023-02-04T15:23:47.383Z,1.09
2023-02-04T15:26:15.605Z,1.02
2023-02-04T15:28:43.707Z,1.08
2023-02-04T15:31:12.697Z,1.05
2023-02-04T15:33:40.908Z,1.01
2023-02-04T15:36:09.511Z,0.95
2023-02-04T15:38:37.764Z,0.91
2023-02-04T15:41:07.939Z,0.89
2023-02-04T15:43:36.239Z,0.88
2023-02-04T15:46:04.564Z,0.82
2023-02-04T15:48:33.043Z,0.77
2023-02-04T15:51:01.126Z,0.73
2023-02-04T15:53:29.316Z,0.74
2023-02-04T15:55:58.481Z,0.73
2023-02-04T15:58:28.142Z,0.67
2023-02-04T16:00:57.447Z,0.63
2023-02-04T16:03:25.946Z,0.60
2023-02-04T16:05:55.543Z,0.58
2023-02-04T16:08:24.048Z,0.60
2023-02-04T16:10:54.123Z,0.63
2023-02-04T16:13:22.389Z,0.54
2023-02-04T16:15:52.205Z,0.47
2023-02-04T16:18:20.542Z,0.58
2023-02-04T16:20:48.699Z,0.58
2023-02-04T16:23:16.852Z,0.49
2023-02-04T16:25:45.155Z,0.44
2023-02-04T16:28:13.699Z,0.47
2023-02-04T16:30:41.991Z,0.46
2023-02-04T16:33:11.645Z,0.46
2023-02-04T16:35:58.356Z,0.40
2023-02-04T16:38:26.816Z,0.36
2023-02-04T16:40:55.426Z,0.34
2023-02-04T16:43:24.690Z,0.39
2023-02-04T16:45:53.285Z,0.34
2023-02-04T16:48:25.042Z,0.34
2023-02-04T16:50:53.367Z,0.36
2023-02-04T16:53:21.830Z,0.33
2023-02-04T16:55:50.301Z,0.27
2023-02-04T16:58:19.676Z,0.27
2023-02-04T17:00:48.766Z,0.25
2023-02-04T17:03:17.083Z,0.23
2023-02-04T17:05:46.806Z,0.22
2023-02-04T17:08:17.566Z,0.19
2023-02-04T17:11:03.381Z,0.16
2023-02-04T17:13:32.131Z,0.16
2023-02-04T17:16:01.420Z,0.09
2023-02-04T17:18:30.923Z,0.10
2023-02-04T17:21:01.161Z,0.13
2023-02-04T17:23:29.667Z,0.09
2023-02-04T17:25:57.953Z,0.16
2023-02-04T17:28:26.293Z,0.12
2023-02-04T17:30:54.635Z,0.19
2023-02-04T17:33:23.115Z,0.16
2023-02-04T17:35:51.760Z,0.16
2023-02-04T17:38:22.424Z,0.17
2023-02-04T17:40:52.022Z,0.16
2023-02-04T17:43:20.392Z,0.08
2023-02-04T17:45:48.763Z,0.10
2023-02-04T17:48:17.246Z,0.01
2023-02-04T17:50:45.864Z,0.01
2023-02-04T17:53:14.494Z,0.08
2023-02-04T17:55:44.439Z,0.01
2023-02-04T17:58:16.134Z,0.03
2023-02-04T18:00:46.849Z,0.08
2023-02-04T18:03:20.175Z,0.13
2023-02-04T18:05:52.260Z,0.06
2023-02-04T18:08:22.473Z,0.03
2023-02-04T18:10:54.508Z,0.01
2023-02-04T18:13:24.405Z,0.01
2023-02-04T18:15:54.328Z,0.08
2023-02-04T18:18:25.122Z,0.01
2023-02-04T18:21:00.813Z,0.03
2023-02-04T18:23:30.873Z,0.06
2023-02-04T18:26:12.027Z,-0.02
2023-02-04T18:28:42.343Z,0.01
2023-02-04T18:31:26.646Z,0.01
2023-02-04T18:33:55.258Z,0.02
2023-02-04T18:36:23.601Z,0.03
2023-02-04T18:38:52.075Z,0.12
2023-02-04T18:41:34.176Z,0.08
2023-02-04T18:44:18.298Z,0.01
2023-02-04T18:46:48.939Z,-0.02
2023-02-04T18:49:26.381Z,-0.09
2023-02-04T18:51:55.776Z,-0.09
2023-02-04T18:54:31.566Z,-0.13
2023-02-04T18:57:30.437Z,-0.18
2023-02-04T19:00:26.300Z,-0.29
2023-02-04T19:02:57.378Z,-0.25
2023-02-04T19:05:33.503Z,-0.36
2023-02-04T19:08:25.254Z,-0.39
2023-02-04T19:10:55.150Z,-0.42
2023-02-04T19:13:27.526Z,-0.42
2023-02-04T19:15:59.815Z,-0.49
2023-02-04T19:18:30.077Z,-0.52
2023-02-04T19:21:09.368Z,-0.57
2023-02-04T19:23:39.231Z,-0.52
2023-02-04T19:26:27.082Z,-0.57
2023-02-04T19:28:57.389Z,-0.60
2023-02-04T19:31:31.559Z,-0.57
2023-02-04T19:34:00.370Z,-0.54
2023-02-04T19:36:35.555Z,-0.60
2023-02-04T19:39:06.331Z,-0.52
2023-02-04T19:41:42.603Z,-0.52
2023-02-04T19:44:32.759Z,-0.52
2023-02-04T19:47:19.377Z,-0.48
2023-02-04T19:49:48.194Z,-0.52
2023-02-04T19:52:30.202Z,-0.56
2023-02-04T19:55:22.066Z,-0.54
2023-02-04T19:57:52.480Z,-0.59
2023-02-04T20:00:42.756Z,-0.61
2023-02-04T20:03:29.806Z,-0.54
2023-02-04T20:06:02.057Z,-0.44
2023-02-04T20:08:46.313Z,-0.44
2023-02-04T20:11:45.195Z,-0.49
2023-02-04T20:14:41.447Z,-0.46
2023-02-04T20:17:20.838Z,-0.46
2023-02-04T20:19:53.587Z,-0.50
2023-02-04T20:22:42.934Z,-0.46
2023-02-04T20:25:42.571Z,-0.56
2023-02-04T20:28:45.062Z,-0.59
2023-02-04T20:31:24.158Z,-0.59
2023-02-04T20:33:55.534Z,-0.66
2023-02-04T20:36:40.942Z,-0.70
2023-02-04T20:39:40.168Z,-0.74
2023-02-04T20:42:44.925Z,-0.77
2023-02-04T20:45:24.879Z,-0.81
2023-02-04T20:47:55.297Z,-0.78
2023-02-04T20:50:43.105Z,-0.76
2023-02-04T20:53:27.207Z,-0.80
2023-02-04T20:56:03.622Z,-0.83
2023-02-04T20:58:36.848Z,-0.83
2023-02-04T21:01:23.418Z,-0.91
2023-02-04T21:03:52.265Z,-0.88
2023-02-04T21:06:27.864Z,-0.95
2023-02-04T21:09:02.856Z,-0.94
2023-02-04T21:11:31.076Z,-0.92
2023-02-04T21:13:59.277Z,-0.94
2023-02-04T21:16:27.971Z,-0.94
2023-02-04T21:18:56.350Z,-0.91
2023-02-04T21:21:27.187Z,-0.91
2023-02-04T21:23:56.510Z,-0.92
2023-02-04T21:26:25.052Z,-0.91
2023-02-04T21:28:55.341Z,-0.94
2023-02-04T21:31:23.715Z,-1.01
2023-02-04T21:33:52.034Z,-0.97
2023-02-04T21:36:20.447Z,-1.01
2023-02-04T21:38:50.228Z,-1.01
2023-02-04T21:41:20.745Z,-0.99
2023-02-04T21:43:49.136Z,-1.04
2023-02-04T21:46:18.218Z,-1.05
2023-02-04T21:48:47.058Z,-0.99
2023-02-04T21:51:16.672Z,-1.02
2023-02-04T21:53:45.408Z,-0.94
2023-02-04T21:56:15.542Z,-0.97
2023-02-04T21:58:45.751Z,-0.97
2023-02-04T22:01:16.575Z,-0.98
2023-02-04T22:03:44.772Z,-0.98
2023-02-04T22:06:13.077Z,-0.95
2023-02-04T22:08:41.394Z,-0.92
2023-02-04T22:11:09.650Z,-0.87
2023-02-04T22:13:56.878Z,-0.91
2023-02-04T22:16:25.190Z,-0.85
2023-02-04T22:18:53.390Z,-0.83
2023-02-04T22:21:21.584Z,-0.87
2023-02-04T22:23:49.833Z,-0.88
2023-02-04T22:26:18.028Z,-0.81
2023-02-04T22:28:47.616Z,-0.83
2023-02-04T22:31:16.129Z,-0.85
2023-02-04T22:33:44.368Z,-0.85
2023-02-04T22:36:12.686Z,-0.88
2023-02-04T22:38:40.942Z,-0.88
2023-02-04T22:41:09.239Z,-0.92
2023-02-04T22:43:37.735Z,-0.94
2023-02-04T22:46:07.480Z,-0.85
2023-02-04T22:48:37.258Z,-0.87
2023-02-04T22:51:05.482Z,-0.90
2023-02-04T22:53:33.799Z,-0.90
2023-02-04T22:56:02.005Z,-0.88
2023-02-04T22:58:30.101Z,-0.85
2023-02-04T23:00:58.448Z,-0.88
2023-02-04T23:03:28.314Z,-0.81
2023-02-04T23:05:56.469Z,-0.90
2023-02-04T23:08:25.205Z,-0.97
2023-02-04T23:10:53.589Z,-0.94
2023-02-04T23:13:21.876Z,-0.95
2023-02-04T23:15:50.057Z,-0.99
2023-02-04T23:18:18.548Z,-0.97
2023-02-04T23:20:48.356Z,-0.99
2023-02-04T23:23:19.149Z,-1.01
2023-02-04T23:25:48.246Z,-1.07
2023-02-04T23:28:17.371Z,-0.99
2023-02-04T23:30:45.968Z,-0.98
2023-02-04T23:33:14.165Z,-0.99
2023-02-04T23:35:42.490Z,-0.91
2023-02-04T23:38:12.291Z,-0.98
2023-02-04T23:40:40.577Z,-1.02
2023-02-04T23:43:10.759Z,-0.95
2023-02-04T23:45:39.209Z,-0.98
2023-02-04T23:48:07.839Z,-1.01
2023-02-04T23:50:36.192Z,-0.97
2023-02-04T23:53:04.396Z,-0.97
2023-02-04T23:55:34.657Z,-1.04
2023-02-04T23:58:03.145Z,-1.02
